Time;durP1;ratioP1;P1;durP2;ratioP2;P2;SDS_P1;SDS_P2;PMS_P1;PMS_P2;Temp;Humidity;BMP_temperature;BMP_pressure;BME280_temperature;BME280_humidity;BME280_pressure;Samples;Min_cycle;Max_cycle;Signal;HPM_P1;HPM_P2
2021/07/28 00:02:04;;;;;;;5.38;2.67;;;20.50;72.10;;;;;;4994826;28;20125;-74
2021/07/28 00:04:39;;;;;;;3.42;2.38;;;20.50;72.40;;;;;;4996704;28;20041;-74
2021/07/28 00:07:07;;;;;;;5.03;2.05;;;20.40;72.50;;;;;;5001313;28;20034;-74
2021/07/28 00:09:33;;;;;;;3.88;1.92;;;20.40;72.50;;;;;;4997651;28;20490;-74
2021/07/28 00:11:58;;;;;;;2.50;2.13;;;20.40;72.20;;;;;;4997563;28;20029;-74
2021/07/28 00:14:24;;;;;;;2.45;1.85;;;20.40;72.70;;;;;;5002904;28;20042;-74
2021/07/28 00:16:49;;;;;;;4.55;2.15;;;20.30;72.30;;;;;;4997754;28;20030;-74
2021/07/28 00:24:31;;;;;;;2.28;2.05;;;20.20;73.40;;;;;;4996573;28;20036;-75
2021/07/28 00:26:59;;;;;;;5.60;2.92;;;20.20;73.70;;;;;;4999032;28;20421;-75
2021/07/28 00:29:27;;;;;;;5.95;2.63;;;20.20;74.00;;;;;;5003003;28;20034;-75
2021/07/28 00:31:53;;;;;;;3.20;2.08;;;20.20;73.30;;;;;;4996867;28;20036;-75
2021/07/28 00:34:18;;;;;;;2.83;2.05;;;20.10;73.10;;;;;;5003218;28;20039;-74
2021/07/28 00:36:44;;;;;;;4.80;2.85;;;20.00;73.10;;;;;;5002556;28;20085;-75
2021/07/28 00:39:09;;;;;;;2.60;2.15;;;20.00;73.10;;;;;;5000933;28;20113;-76
2021/07/28 00:41:42;;;;;;;3.08;2.47;;;19.90;73.20;;;;;;5017580;28;20512;-75
2021/07/28 00:44:07;;;;;;;3.03;2.60;;;20.00;73.30;;;;;;5000440;28;20581;-75
2021/07/28 00:46:33;;;;;;;2.75;2.30;;;20.00;73.70;;;;;;5008911;28;20112;-75
2021/07/28 00:48:59;;;;;;;4.65;2.75;;;20.00;74.10;;;;;;5002826;28;20025;-75
2021/07/28 00:51:24;;;;;;;5.43;3.03;;;20.00;74.10;;;;;;5018778;28;20022;-75
2021/07/28 00:53:50;;;;;;;4.22;2.95;;;20.00;74.30;;;;;;5001250;28;20105;-75
2021/07/28 00:56:20;;;;;;;3.47;3.17;;;19.90;74.30;;;;;;5001271;28;20041;-75
2021/07/28 00:58:45;;;;;;;4.05;2.75;;;19.90;75.00;;;;;;5002303;28;20034;-74
2021/07/28 01:01:11;;;;;;;4.68;3.03;;;19.90;74.70;;;;;;4998569;28;20026;-75
2021/07/28 01:03:39;;;;;;;3.55;2.30;;;19.80;74.90;;;;;;4999663;28;20037;-74
2021/07/28 01:06:05;;;;;;;2.97;2.38;;;19.80;74.70;;;;;;4997745;28;20092;-75
2021/07/28 01:08:31;;;;;;;3.65;2.80;;;19.80;74.80;;;;;;5002709;28;20447;-75
2021/07/28 01:10:59;;;;;;;8.18;2.38;;;19.80;74.70;;;;;;4998970;28;20029;-75
2021/07/28 01:13:29;;;;;;;3.22;2.50;;;19.80;74.70;;;;;;5015670;28;20192;-75
2021/07/28 01:16:09;;;;;;;3.08;2.42;;;19.80;74.80;;;;;;5010463;28;20053;-84
2021/07/28 01:18:35;;;;;;;2.55;2.15;;;19.80;74.40;;;;;;5011939;28;20105;-84
2021/07/28 01:21:02;;;;;;;7.28;3.00;;;19.80;74.50;;;;;;5012496;28;20034;-84
2021/07/28 01:23:31;;;;;;;4.07;2.33;;;19.80;74.90;;;;;;5012665;28;20030;-84
2021/07/28 01:26:00;;;;;;;5.43;2.78;;;19.80;74.90;;;;;;5008859;28;20389;-84
2021/07/28 01:28:27;;;;;;;3.33;2.22;;;19.70;75.10;;;;;;4999297;28;20018;-84
2021/07/28 01:30:58;;;;;;;4.05;2.83;;;19.70;75.10;;;;;;5007582;28;20076;-84
2021/07/28 01:33:23;;;;;;;3.25;2.50;;;19.70;75.00;;;;;;5020879;28;20979;-84
2021/07/28 01:35:49;;;;;;;2.92;2.38;;;19.70;75.10;;;;;;4999951;28;20061;-84
2021/07/28 01:38:15;;;;;;;2.50;2.25;;;19.70;75.40;;;;;;5001709;28;20444;-84
2021/07/28 01:40:40;;;;;;;2.38;2.13;;;19.70;75.40;;;;;;5010049;28;20026;-84
2021/07/28 01:43:14;;;;;;;2.97;2.40;;;19.60;75.70;;;;;;4998540;28;20031;-84
2021/07/28 01:45:40;;;;;;;3.17;2.53;;;19.60;75.80;;;;;;5007993;28;20054;-82
2021/07/28 01:48:05;;;;;;;2.40;1.88;;;19.60;75.60;;;;;;5003609;28;20076;-82
2021/07/28 01:50:31;;;;;;;10.40;2.42;;;19.80;75.50;;;;;;5013168;28;20021;-82
2021/07/28 01:53:01;;;;;;;4.75;2.63;;;20.00;75.00;;;;;;5013448;28;20022;-82
2021/07/28 01:55:26;;;;;;;4.65;2.15;;;20.20;74.60;;;;;;5001384;28;20125;-82
2021/07/28 01:57:53;;;;;;;2.70;1.85;;;20.30;74.40;;;;;;5019128;28;20109;-82
2021/07/28 02:00:19;;;;;;;2.47;2.28;;;20.50;74.30;;;;;;5009910;28;20036;-82
2021/07/28 02:02:44;;;;;;;3.38;2.47;;;20.50;73.70;;;;;;5016164;28;20069;-82
2021/07/28 02:05:10;;;;;;;4.13;3.22;;;20.50;73.30;;;;;;5009212;28;20064;-82
2021/07/28 02:07:36;;;;;;;4.30;2.92;;;20.60;73.20;;;;;;5001401;28;20394;-82
2021/07/28 02:10:01;;;;;;;8.18;5.57;;;20.60;72.60;;;;;;4992914;28;20033;-82
2021/07/28 02:12:27;;;;;;;8.35;7.43;;;20.60;73.10;;;;;;4999788;28;20025;-82
2021/07/28 02:14:52;;;;;;;13.63;9.63;;;20.70;72.50;;;;;;4998238;28;20042;-81
2021/07/28 02:17:18;;;;;;;10.80;7.55;;;20.70;72.00;;;;;;5000785;28;20034;-82
2021/07/28 02:19:43;;;;;;;8.63;6.75;;;20.80;72.00;;;;;;5010971;28;20168;-83
2021/07/28 02:22:11;;;;;;;4.97;4.50;;;20.70;71.90;;;;;;5008908;28;20026;-82
2021/07/28 02:24:37;;;;;;;7.03;5.45;;;20.70;71.90;;;;;;5000034;28;20043;-82
2021/07/28 02:27:03;;;;;;;6.13;3.47;;;20.60;71.80;;;;;;5003243;28;20093;-82
2021/07/28 02:29:28;;;;;;;3.38;2.75;;;20.60;72.00;;;;;;5004870;28;20113;-82
2021/07/28 02:31:54;;;;;;;4.10;3.30;;;20.60;72.30;;;;;;5008800;28;20030;-82
2021/07/28 02:34:19;;;;;;;3.83;2.92;;;20.60;72.00;;;;;;5008786;28;20034;-82
2021/07/28 02:36:45;;;;;;;2.45;2.13;;;20.50;72.40;;;;;;5005231;28;20026;-82
2021/07/28 02:39:11;;;;;;;5.13;2.50;;;20.50;72.50;;;;;;5010085;28;20026;-81
2021/07/28 02:41:37;;;;;;;5.32;2.83;;;20.40;72.70;;;;;;5008632;28;20083;-82
2021/07/28 02:44:02;;;;;;;4.78;2.72;;;20.30;72.80;;;;;;5002935;28;21305;-82
2021/07/28 02:46:28;;;;;;;2.28;1.83;;;20.30;73.00;;;;;;4998770;28;20489;-82
2021/07/28 02:48:53;;;;;;;4.90;2.75;;;20.30;73.10;;;;;;5001280;28;20030;-82
2021/07/28 02:51:19;;;;;;;4.15;2.45;;;20.20;73.00;;;;;;5001306;28;20030;-82
2021/07/28 02:53:44;;;;;;;3.03;2.30;;;20.20;73.10;;;;;;5000933;28;20511;-82
2021/07/28 02:56:10;;;;;;;2.00;1.90;;;20.10;73.50;;;;;;5001430;28;20477;-82
2021/07/28 02:58:35;;;;;;;3.45;2.38;;;20.10;73.90;;;;;;4999093;28;20037;-82
2021/07/28 03:01:00;;;;;;;2.65;1.90;;;20.10;74.20;;;;;;4998957;28;20116;-82
2021/07/28 03:03:26;;;;;;;3.67;2.05;;;20.00;74.10;;;;;;5000889;28;20092;-82
2021/07/28 03:05:51;;;;;;;3.97;2.58;;;19.90;74.30;;;;;;4999247;28;20105;-82
2021/07/28 03:08:17;;;;;;;3.40;2.50;;;19.90;74.30;;;;;;5001083;28;20469;-82
2021/07/28 03:10:43;;;;;;;2.45;2.25;;;19.80;74.80;;;;;;5000148;28;20059;-82
2021/07/28 03:13:08;;;;;;;2.55;2.25;;;19.80;74.40;;;;;;5001733;28;20018;-82
2021/07/28 03:15:34;;;;;;;3.63;2.55;;;19.80;74.40;;;;;;4999764;28;20046;-82
2021/07/28 03:18:01;;;;;;;5.05;2.38;;;19.90;74.70;;;;;;5000876;28;20549;-82
2021/07/28 03:20:26;;;;;;;2.80;2.22;;;19.80;74.90;;;;;;5001637;28;20049;-82
2021/07/28 03:22:52;;;;;;;3.53;2.45;;;19.80;75.00;;;;;;4997448;28;20092;-82
2021/07/28 03:25:17;;;;;;;6.63;3.10;;;19.70;75.40;;;;;;4999919;28;20392;-82
2021/07/28 03:27:43;;;;;;;4.60;2.00;;;19.70;75.30;;;;;;5000847;28;20018;-82
2021/07/28 03:30:09;;;;;;;2.63;2.17;;;19.60;75.70;;;;;;5000800;28;20031;-82
2021/07/28 03:32:34;;;;;;;3.80;2.72;;;19.60;75.50;;;;;;5003511;28;20035;-82
2021/07/28 03:35:00;;;;;;;4.93;2.60;;;19.50;75.90;;;;;;4999906;28;20169;-82
2021/07/28 03:37:25;;;;;;;6.03;2.67;;;19.50;76.30;;;;;;5017456;28;20030;-82
2021/07/28 03:40:00;;;;;;;3.60;2.83;;;19.50;76.20;;;;;;4999901;28;20034;-82
2021/07/28 03:42:29;;;;;;;3.53;2.45;;;19.50;76.30;;;;;;5002740;28;20041;-82
2021/07/28 03:44:55;;;;;;;4.93;2.33;;;19.60;76.60;;;;;;5003526;28;20038;-82
2021/07/28 03:47:21;;;;;;;4.32;2.25;;;19.60;76.20;;;;;;5018890;28;20956;-82
2021/07/28 03:49:46;;;;;;;2.67;2.45;;;19.60;76.30;;;;;;4999899;28;20026;-82
2021/07/28 03:52:12;;;;;;;4.22;2.20;;;19.60;76.00;;;;;;5000127;28;20037;-82
2021/07/28 03:54:37;;;;;;;3.30;2.40;;;19.60;76.20;;;;;;5003692;28;20030;-82
2021/07/28 03:57:03;;;;;;;5.65;2.33;;;19.70;76.00;;;;;;4999456;28;20034;-82
2021/07/28 03:59:29;;;;;;;3.03;2.30;;;19.60;76.20;;;;;;5001079;28;20037;-82
2021/07/28 04:01:54;;;;;;;3.95;3.05;;;19.60;76.30;;;;;;4997893;28;20109;-82
2021/07/28 04:04:20;;;;;;;3.72;2.33;;;19.70;76.10;;;;;;5000387;28;20034;-82
2021/07/28 04:06:45;;;;;;;2.83;2.17;;;19.70;76.00;;;;;;4999783;28;20036;-81
2021/07/28 04:09:11;;;;;;;4.47;3.10;;;19.80;76.40;;;;;;5005561;28;20035;-82
2021/07/28 04:11:36;;;;;;;6.32;2.47;;;19.90;76.30;;;;;;5010931;28;20049;-82
2021/07/28 04:14:02;;;;;;;4.72;2.83;;;20.00;76.20;;;;;;5006935;28;20030;-82
2021/07/28 04:16:27;;;;;;;2.58;2.17;;;20.20;76.20;;;;;;5022727;28;20749;-81
2021/07/28 04:18:52;;;;;;;5.30;2.38;;;20.40;75.80;;;;;;4999540;28;20032;-82
2021/07/28 04:21:18;;;;;;;4.00;3.28;;;20.60;75.40;;;;;;5007104;28;20026;-82
2021/07/28 04:23:44;;;;;;;5.47;2.72;;;20.70;74.70;;;;;;5003185;28;20026;-82
2021/07/28 04:26:09;;;;;;;5.22;2.13;;;20.90;74.90;;;;;;5002149;28;20037;-80
2021/07/28 04:28:35;;;;;;;3.95;3.10;;;21.10;74.60;;;;;;5006178;28;20101;-81
2021/07/28 04:31:00;;;;;;;6.13;3.67;;;21.20;74.20;;;;;;5006402;28;20030;-81
2021/07/28 04:33:26;;;;;;;2.83;2.58;;;21.50;73.60;;;;;;5008550;28;20109;-82
2021/07/28 04:35:51;;;;;;;9.80;2.95;;;21.80;73.40;;;;;;5010630;28;20027;-81
2021/07/28 04:38:17;;;;;;;6.80;3.42;;;22.00;72.30;;;;;;5010735;28;20095;-81
2021/07/28 04:40:43;;;;;;;5.22;4.30;;;22.10;71.60;;;;;;5009162;28;20109;-81
2021/07/28 04:43:09;;;;;;;9.73;4.40;;;22.30;70.90;;;;;;5016816;28;20117;-81
2021/07/28 04:45:34;;;;;;;4.45;3.97;;;22.40;69.80;;;;;;5001297;28;20121;-80
2021/07/28 04:48:00;;;;;;;3.55;2.55;;;22.50;70.00;;;;;;5001907;28;20041;-80
2021/07/28 04:50:25;;;;;;;4.75;3.50;;;22.70;69.30;;;;;;5005152;28;20552;-81
2021/07/28 04:52:51;;;;;;;6.28;3.72;;;22.90;69.10;;;;;;5002624;28;20018;-80
2021/07/28 04:55:16;;;;;;;7.70;3.08;;;23.00;68.90;;;;;;5000329;28;20057;-81
2021/07/28 04:57:42;;;;;;;7.72;3.58;;;23.20;68.80;;;;;;5001118;28;20105;-80
2021/07/28 05:00:08;;;;;;;3.72;2.72;;;23.30;68.70;;;;;;4999394;28;20076;-81
2021/07/28 05:02:33;;;;;;;5.93;3.38;;;23.50;68.20;;;;;;5001829;28;20023;-81
2021/07/28 05:04:59;;;;;;;5.60;3.15;;;23.50;67.70;;;;;;5001555;28;20447;-81
2021/07/28 05:07:24;;;;;;;3.35;2.80;;;23.40;67.60;;;;;;5003415;28;20049;-81
2021/07/28 05:09:49;;;;;;;4.57;3.13;;;23.30;67.50;;;;;;5002534;28;20517;-80
2021/07/28 05:12:15;;;;;;;7.32;4.15;;;23.10;68.00;;;;;;4998292;28;20034;-81
2021/07/28 05:14:40;;;;;;;5.28;3.53;;;22.90;68.30;;;;;;4998731;28;20367;-79
2021/07/28 05:17:06;;;;;;;9.80;3.15;;;22.70;68.60;;;;;;5007792;28;20117;-79
2021/07/28 05:19:32;;;;;;;10.52;3.95;;;22.50;68.90;;;;;;5002712;28;20402;-79
2021/07/28 05:21:57;;;;;;;5.22;3.15;;;22.40;69.30;;;;;;4999105;28;20061;-78
2021/07/28 05:24:22;;;;;;;5.28;3.35;;;22.20;69.40;;;;;;5000356;28;20042;-78
2021/07/28 05:26:48;;;;;;;7.20;3.40;;;22.20;69.50;;;;;;5000571;28;20028;-79
2021/07/28 05:29:13;;;;;;;5.40;3.42;;;22.10;69.70;;;;;;4999799;28;20026;-79
2021/07/28 05:31:39;;;;;;;6.57;2.83;;;22.10;69.90;;;;;;5016045;28;20477;-79
2021/07/28 05:34:04;;;;;;;3.67;2.90;;;22.30;69.50;;;;;;5000247;28;20027;-78
2021/07/28 05:36:30;;;;;;;4.90;2.67;;;22.50;69.50;;;;;;5002353;28;20579;-79
2021/07/28 05:38:55;;;;;;;3.65;2.83;;;22.80;68.70;;;;;;5001842;28;20097;-79
2021/07/28 05:41:21;;;;;;;5.00;2.97;;;22.90;68.50;;;;;;5002164;28;20035;-79
2021/07/28 05:43:46;;;;;;;5.60;3.13;;;22.90;68.30;;;;;;5003346;28;20022;-79
2021/07/28 05:46:12;;;;;;;3.22;2.92;;;22.70;68.30;;;;;;5001164;28;20044;-78
2021/07/28 05:48:37;;;;;;;5.32;3.05;;;22.60;68.80;;;;;;5000446;28;20026;-79
2021/07/28 05:51:03;;;;;;;4.50;2.60;;;22.40;69.50;;;;;;5001578;28;20018;-79
2021/07/28 05:53:28;;;;;;;3.75;2.35;;;22.40;69.40;;;;;;5000078;28;20434;-79
2021/07/28 05:55:55;;;;;;;4.38;2.33;;;22.40;69.60;;;;;;5005758;28;20034;-79
2021/07/28 05:58:21;;;;;;;4.60;3.20;;;22.50;69.60;;;;;;4999290;28;20113;-79
2021/07/28 06:00:47;;;;;;;6.00;2.90;;;22.60;69.30;;;;;;4999879;28;20034;-79
2021/07/28 06:03:13;;;;;;;8.93;3.13;;;22.70;69.00;;;;;;5001125;28;20026;-79
2021/07/28 06:05:38;;;;;;;13.15;4.28;;;22.70;68.50;;;;;;5002670;28;20548;-79
2021/07/28 06:08:04;;;;;;;10.77;3.55;;;22.70;68.40;;;;;;5000830;28;20254;-79
2021/07/28 06:10:29;;;;;;;8.30;3.92;;;22.80;68.40;;;;;;5001376;28;20460;-79
2021/07/28 06:12:55;;;;;;;8.40;3.13;;;22.90;68.40;;;;;;4999010;28;20043;-79
2021/07/28 06:15:20;;;;;;;7.75;3.65;;;22.90;68.50;;;;;;5001900;28;20042;-79
2021/07/28 06:17:46;;;;;;;6.93;3.28;;;23.00;68.30;;;;;;5000505;28;20429;-79
2021/07/28 06:20:12;;;;;;;7.70;3.85;;;23.20;68.10;;;;;;5000201;28;20030;-79
2021/07/28 06:22:37;;;;;;;10.50;4.20;;;23.30;67.60;;;;;;4999625;28;20536;-77
2021/07/28 06:25:04;;;;;;;6.72;3.38;;;23.40;67.20;;;;;;5001386;28;20211;-78
2021/07/28 06:27:29;;;;;;;4.13;2.70;;;23.60;67.00;;;;;;5016423;28;20484;-78
2021/07/28 06:29:55;;;;;;;6.40;3.00;;;23.70;66.60;;;;;;4997417;28;20027;-78
2021/07/28 06:32:21;;;;;;;4.93;3.03;;;23.80;66.00;;;;;;5001082;28;20057;-78
2021/07/28 06:34:46;;;;;;;4.25;2.50;;;23.80;66.10;;;;;;5000367;28;20076;-79
2021/07/28 06:37:12;;;;;;;3.25;2.58;;;23.70;66.10;;;;;;4998587;28;20510;-78
2021/07/28 06:39:38;;;;;;;5.53;2.35;;;23.60;65.90;;;;;;5000400;28;20029;-78
2021/07/28 06:42:03;;;;;;;8.25;4.38;;;23.70;65.80;;;;;;5001810;28;20409;-79
2021/07/28 06:44:29;;;;;;;10.40;6.43;;;23.80;65.60;;;;;;5000289;28;20044;-78
2021/07/28 06:46:54;;;;;;;5.25;4.55;;;23.90;65.40;;;;;;5000306;28;20038;-78
2021/07/28 06:49:20;;;;;;;4.82;3.42;;;24.00;65.20;;;;;;5002189;28;20377;-78
2021/07/28 06:51:45;;;;;;;7.07;3.80;;;24.10;65.00;;;;;;5000811;28;20060;-79
2021/07/28 06:54:11;;;;;;;7.30;2.90;;;24.10;65.00;;;;;;4997371;28;20018;-75
2021/07/28 06:56:37;;;;;;;4.57;3.60;;;24.10;65.10;;;;;;4999710;28;20036;-74
2021/07/28 06:59:02;;;;;;;6.15;3.78;;;24.00;65.00;;;;;;4997269;28;20489;-74
2021/07/28 07:01:28;;;;;;;4.65;3.88;;;24.00;65.00;;;;;;4997817;28;20040;-77
2021/07/28 07:03:54;;;;;;;6.50;3.97;;;24.10;65.10;;;;;;4998467;28;20035;-78
2021/07/28 07:06:19;;;;;;;5.53;3.88;;;24.10;64.80;;;;;;5000609;28;20073;-75
2021/07/28 07:08:44;;;;;;;5.18;3.88;;;24.10;64.90;;;;;;4999115;28;20080;-76
2021/07/28 07:11:10;;;;;;;6.35;3.40;;;24.10;65.00;;;;;;4997697;28;20049;-77
2021/07/28 07:13:36;;;;;;;7.70;3.10;;;24.20;64.80;;;;;;4999956;28;20072;-76
2021/07/28 07:16:02;;;;;;;3.95;2.55;;;24.30;63.90;;;;;;5000117;28;20073;-77
2021/07/28 07:18:27;;;;;;;2.90;2.45;;;24.40;63.70;;;;;;4996911;28;20065;-78
2021/07/28 07:20:53;;;;;;;4.13;2.25;;;24.50;63.30;;;;;;5000510;28;20037;-77
2021/07/28 07:23:18;;;;;;;7.60;2.90;;;24.40;63.10;;;;;;4999981;28;20488;-78
2021/07/28 07:25:44;;;;;;;6.90;3.33;;;24.40;63.50;;;;;;4999059;28;20034;-80
2021/07/28 07:28:09;;;;;;;4.55;2.70;;;24.40;63.70;;;;;;5004056;28;20433;-79
2021/07/28 07:30:35;;;;;;;4.70;2.40;;;24.50;63.50;;;;;;4999372;28;20584;-79
2021/07/28 07:33:45;;;;;;;4.97;2.88;;;24.50;63.40;;;;;;5001076;28;20018;-77
2021/07/28 07:35:46;;;;;;;3.37;2.50;;;24.60;63.40;;;;;;4988134;28;20120;-77
2021/07/28 07:38:12;;;;;;;2.95;1.83;;;24.50;62.90;;;;;;4999311;28;20501;-79
2021/07/28 07:40:37;;;;;;;3.47;2.55;;;24.40;63.00;;;;;;4999833;28;20033;-80
2021/07/28 07:43:06;;;;;;;2.67;2.30;;;24.20;63.30;;;;;;5003555;28;20424;-77
2021/07/28 07:45:33;;;;;;;4.50;2.28;;;24.10;64.00;;;;;;5003560;28;20041;-77
2021/07/28 07:47:59;;;;;;;4.82;2.65;;;24.10;64.10;;;;;;5003152;28;20108;-77
2021/07/28 07:50:24;;;;;;;6.03;3.72;;;24.30;63.90;;;;;;5004751;28;20113;-76
2021/07/28 07:52:50;;;;;;;4.05;2.50;;;24.50;63.70;;;;;;5003429;28;20018;-75
2021/07/28 07:55:16;;;;;;;4.35;2.78;;;24.60;62.90;;;;;;5001172;28;20544;-75
2021/07/28 07:57:41;;;;;;;4.82;3.45;;;24.80;62.60;;;;;;5004466;28;20037;-77
2021/07/28 08:00:07;;;;;;;3.40;2.67;;;24.80;62.70;;;;;;5002593;28;20401;-76
2021/07/28 08:02:33;;;;;;;3.92;2.60;;;24.90;62.40;;;;;;5002607;28;20084;-76
2021/07/28 08:04:59;;;;;;;3.45;2.80;;;24.90;61.90;;;;;;5001638;28;20026;-77
2021/07/28 08:07:24;;;;;;;4.03;2.65;;;25.10;61.80;;;;;;5002269;28;20038;-78
2021/07/28 08:09:50;;;;;;;3.22;2.63;;;25.10;61.00;;;;;;5003517;28;20026;-76
2021/07/28 08:12:15;;;;;;;5.50;2.90;;;25.10;61.30;;;;;;5002240;28;20544;-76
2021/07/28 08:14:41;;;;;;;3.67;2.47;;;25.20;61.30;;;;;;5003191;28;20034;-77
2021/07/28 08:17:06;;;;;;;5.45;2.25;;;25.20;61.10;;;;;;5001532;28;20061;-74
2021/07/28 08:19:32;;;;;;;6.18;2.83;;;25.20;61.20;;;;;;5003847;28;20104;-79
2021/07/28 08:21:57;;;;;;;4.53;2.38;;;25.20;61.10;;;;;;5003182;28;20415;-78
2021/07/28 08:24:23;;;;;;;3.90;2.78;;;25.10;61.20;;;;;;5003278;28;20030;-79
2021/07/28 08:26:48;;;;;;;5.28;2.35;;;25.00;61.60;;;;;;5003425;28;20484;-79
2021/07/28 08:29:14;;;;;;;5.90;2.63;;;25.00;61.60;;;;;;5004671;28;20034;-78
2021/07/28 08:31:39;;;;;;;4.35;3.13;;;25.10;61.60;;;;;;5005317;28;20504;-77
2021/07/28 08:34:05;;;;;;;4.85;2.65;;;25.20;61.40;;;;;;5005177;28;20002;-74
2021/07/28 08:36:30;;;;;;;7.53;3.33;;;25.30;61.40;;;;;;5004058;28;20109;-74
2021/07/28 08:38:56;;;;;;;6.43;2.65;;;25.40;61.00;;;;;;5003611;28;20034;-75
2021/07/28 08:41:25;;;;;;;5.78;3.58;;;25.30;61.00;;;;;;5004441;28;20089;-77
2021/07/28 08:43:56;;;;;;;3.45;2.85;;;25.30;60.80;;;;;;5005742;28;20117;-77
2021/07/28 08:46:25;;;;;;;4.93;2.95;;;25.40;60.80;;;;;;5020607;28;20034;-76
2021/07/28 08:48:51;;;;;;;5.28;3.60;;;25.40;60.90;;;;;;5002938;28;20088;-74
2021/07/28 08:51:17;;;;;;;8.88;2.88;;;25.40;60.80;;;;;;5002689;28;20025;-74
2021/07/28 08:53:42;;;;;;;9.27;3.08;;;25.30;60.90;;;;;;5001836;28;20501;-75
2021/07/28 08:56:09;;;;;;;7.05;3.13;;;25.30;60.70;;;;;;5000925;28;20080;-76
2021/07/28 08:58:35;;;;;;;3.72;2.92;;;25.30;61.20;;;;;;5001815;28;20045;-76
2021/07/28 09:01:01;;;;;;;4.57;3.28;;;25.20;61.40;;;;;;5003162;28;20156;-77
2021/07/28 09:03:26;;;;;;;7.05;2.92;;;25.20;61.50;;;;;;5003154;28;20117;-78
2021/07/28 09:05:58;;;;;;;4.47;3.20;;;25.20;61.30;;;;;;5002281;28;20079;-76
2021/07/28 09:08:36;;;;;;;7.13;2.88;;;25.20;61.30;;;;;;5004519;28;20014;-76
2021/07/28 09:11:08;;;;;;;4.20;2.80;;;25.20;61.50;;;;;;5004921;28;20026;-80
2021/07/28 09:13:37;;;;;;;5.13;2.55;;;25.30;61.30;;;;;;5003902;28;20177;-79
2021/07/28 09:16:05;;;;;;;3.83;2.25;;;25.40;61.10;;;;;;5007117;28;20099;-79
2021/07/28 09:18:32;;;;;;;7.10;3.13;;;25.40;61.30;;;;;;5003028;28;20030;-79
2021/07/28 09:20:59;;;;;;;9.68;3.65;;;25.40;60.90;;;;;;5003790;28;20022;-78
2021/07/28 09:23:35;;;;;;;6.38;3.38;;;25.30;61.00;;;;;;5000798;28;20117;-77
2021/07/28 09:26:05;;;;;;;4.45;3.05;;;25.20;61.40;;;;;;5001600;28;20121;-76
2021/07/28 09:28:31;;;;;;;15.25;3.22;;;25.20;61.50;;;;;;5001203;28;20034;-77
2021/07/28 09:30:58;;;;;;;5.72;2.60;;;25.20;61.50;;;;;;5001650;28;20025;-78
2021/07/28 09:33:23;;;;;;;4.03;3.00;;;25.30;61.20;;;;;;5001601;28;20076;-79
2021/07/28 09:35:49;;;;;;;3.70;3.05;;;25.30;60.90;;;;;;5006032;28;20026;-77
2021/07/28 09:38:31;;;;;;;3.47;2.10;;;25.50;61.00;;;;;;5002529;28;20042;-78
2021/07/28 09:41:17;;;;;;;6.13;2.55;;;25.60;60.50;;;;;;5005190;28;20037;-83
2021/07/28 09:43:47;;;;;;;2.45;2.25;;;25.70;60.20;;;;;;5000385;28;20033;-82
2021/07/28 09:46:27;;;;;;;5.88;3.10;;;25.70;60.00;;;;;;4999798;28;20498;-80
2021/07/28 09:48:54;;;;;;;3.25;2.95;;;25.70;59.50;;;;;;5008784;28;20381;-80
2021/07/28 09:51:34;;;;;;;3.67;3.10;;;25.60;59.70;;;;;;5007650;28;20026;-77
2021/07/28 09:54:02;;;;;;;7.13;2.80;;;25.50;59.90;;;;;;5015609;28;20057;-78
2021/07/28 09:56:37;;;;;;;7.05;2.58;;;25.70;60.10;;;;;;5000872;28;20061;-77
2021/07/28 09:59:04;;;;;;;5.97;2.17;;;25.80;59.60;;;;;;5002390;28;20021;-76
2021/07/28 10:01:32;;;;;;;7.07;3.38;;;25.90;60.00;;;;;;4999806;28;20450;-78
2021/07/28 10:03:59;;;;;;;10.27;3.65;;;26.00;59.50;;;;;;5008091;28;20029;-77
2021/07/28 10:06:31;;;;;;;4.47;3.08;;;26.20;59.00;;;;;;5000757;28;20125;-77
2021/07/28 10:08:57;;;;;;;4.40;2.72;;;26.10;58.60;;;;;;4998538;28;20384;-79
2021/07/28 10:11:24;;;;;;;5.25;3.47;;;26.00;58.60;;;;;;4995390;28;20065;-79
2021/07/28 10:13:52;;;;;;;5.90;3.75;;;26.10;58.70;;;;;;4999858;28;20049;-79
2021/07/28 10:16:18;;;;;;;6.72;2.78;;;26.20;58.60;;;;;;5000837;28;20038;-80
2021/07/28 10:18:49;;;;;;;5.00;3.00;;;26.20;58.40;;;;;;4999144;28;20034;-81
2021/07/28 10:21:16;;;;;;;4.45;2.90;;;26.10;58.40;;;;;;4997585;28;20117;-80
2021/07/28 10:23:43;;;;;;;4.22;3.45;;;25.90;58.30;;;;;;5000265;28;20019;-80
2021/07/28 10:26:12;;;;;;;15.23;3.15;;;26.00;58.30;;;;;;4998752;28;20038;-79
2021/07/28 10:28:39;;;;;;;7.60;3.13;;;26.20;58.20;;;;;;5000924;28;20040;-83
2021/07/28 10:31:16;;;;;;;9.55;3.65;;;26.30;58.00;;;;;;4999043;28;20073;-82
2021/07/28 10:33:53;;;;;;;6.40;3.38;;;26.30;58.20;;;;;;5000488;28;20018;-82
2021/07/28 10:36:21;;;;;;;4.10;3.70;;;26.50;57.80;;;;;;4999038;28;20033;-82
2021/07/28 10:38:56;;;;;;;4.97;3.00;;;26.40;57.70;;;;;;5000498;28;20024;-82
2021/07/28 10:41:41;;;;;;;9.32;3.60;;;26.40;57.20;;;;;;5000561;28;20044;-82
2021/07/28 10:44:13;;;;;;;4.57;2.90;;;26.40;57.30;;;;;;5000046;28;20354;-82
2021/07/28 10:46:54;;;;;;;5.15;3.15;;;26.50;57.60;;;;;;4997901;28;20079;-82
2021/07/28 10:49:35;;;;;;;5.70;3.00;;;26.60;57.40;;;;;;5000000;28;20030;-78
2021/07/28 10:52:04;;;;;;;6.40;2.60;;;26.50;56.80;;;;;;4997417;28;20072;-78
2021/07/28 10:54:52;;;;;;;4.72;2.70;;;26.20;57.50;;;;;;5000183;28;20030;-78
2021/07/28 10:57:33;;;;;;;4.18;2.47;;;26.20;57.40;;;;;;4999202;28;20389;-79
2021/07/28 11:00:06;;;;;;;7.03;2.95;;;26.00;57.50;;;;;;4999206;28;20493;-76
2021/07/28 11:03:00;;;;;;;4.80;3.35;;;26.00;57.90;;;;;;5005703;28;20125;-77
2021/07/28 11:05:29;;;;;;;4.13;2.78;;;26.20;57.90;;;;;;4997744;28;20531;-77
2021/07/28 11:08:07;;;;;;;3.35;2.20;;;26.40;57.50;;;;;;4999813;28;20054;-78
2021/07/28 11:10:41;;;;;;;3.40;2.13;;;26.60;57.00;;;;;;5000207;28;20034;-79
2021/07/28 11:13:13;;;;;;;3.72;2.03;;;26.80;55.60;;;;;;4998939;28;20102;-79
2021/07/28 11:15:41;;;;;;;3.13;2.67;;;26.90;56.00;;;;;;5013631;28;20417;-80
2021/07/28 11:18:06;;;;;;;3.83;2.30;;;27.00;55.50;;;;;;4997906;28;20357;-77
2021/07/28 11:20:34;;;;;;;5.18;2.88;;;26.90;55.10;;;;;;4999039;28;20041;-80
2021/07/28 11:23:20;;;;;;;4.85;2.65;;;26.90;55.70;;;;;;5000438;28;20040;-77
2021/07/28 11:25:50;;;;;;;3.00;2.42;;;27.10;55.80;;;;;;4998803;28;20021;-80
2021/07/28 11:28:19;;;;;;;4.32;1.98;;;27.10;55.40;;;;;;4999217;28;20096;-85
2021/07/28 11:30:56;;;;;;;4.65;2.67;;;27.20;54.50;;;;;;5000663;28;20076;-85
2021/07/28 11:33:22;;;;;;;6.13;2.40;;;27.10;54.90;;;;;;4998532;28;20595;-78
2021/07/28 11:35:53;;;;;;;4.95;2.90;;;27.20;54.60;;;;;;4999413;28;20030;-79
2021/07/28 11:38:19;;;;;;;3.85;2.55;;;27.30;54.50;;;;;;4998875;28;20543;-76
2021/07/28 11:40:47;;;;;;;4.20;2.53;;;27.20;54.00;;;;;;5000240;28;20025;-78
2021/07/28 11:43:23;;;;;;;4.45;2.47;;;27.20;54.70;;;;;;5000515;28;20178;-82
2021/07/28 11:45:50;;;;;;;1.83;1.38;;;27.20;54.50;;;;;;5000412;28;20027;-80
2021/07/28 11:48:37;;;;;;;2.30;1.65;;;27.50;54.10;;;;;;4999390;28;20069;-81
2021/07/28 11:51:04;;;;;;;2.38;2.03;;;27.50;53.60;;;;;;4999933;28;20105;-82
2021/07/28 11:53:31;;;;;;;5.32;2.78;;;27.50;53.10;;;;;;4998638;28;20034;-82
2021/07/28 11:56:10;;;;;;;3.13;2.60;;;27.40;53.20;;;;;;4999400;28;20030;-84
2021/07/28 11:58:45;;;;;;;7.55;2.53;;;27.50;53.90;;;;;;4996565;28;20030;-83
2021/07/28 12:01:31;;;;;;;7.40;2.47;;;27.50;54.10;;;;;;4999436;28;20038;-81
2021/07/28 12:04:05;;;;;;;8.07;2.40;;;27.50;53.80;;;;;;4999939;28;20022;-83
2021/07/28 12:06:31;;;;;;;4.30;1.65;;;27.50;53.40;;;;;;5000122;28;20058;-81
2021/07/28 12:09:10;;;;;;;7.85;2.00;;;27.60;53.00;;;;;;4997068;28;20075;-79
2021/07/28 12:11:57;;;;;;;2.80;2.17;;;27.60;53.40;;;;;;4998827;28;20023;-77
2021/07/28 12:14:31;;;;;;;3.80;1.55;;;27.70;53.30;;;;;;5014194;28;20456;-79
2021/07/28 12:17:13;;;;;;;5.43;2.17;;;27.80;53.60;;;;;;4999188;28;20399;-78
2021/07/28 12:19:49;;;;;;;2.28;1.58;;;27.90;53.20;;;;;;4998466;28;20096;-80
2021/07/28 12:22:15;;;;;;;3.47;1.67;;;27.80;53.20;;;;;;4998286;28;20416;-80
2021/07/28 12:24:46;;;;;;;10.88;3.15;;;28.00;53.40;;;;;;4998939;28;20038;-83
2021/07/28 12:27:35;;;;;;;2.85;2.08;;;27.90;52.60;;;;;;4999505;28;20041;-83
2021/07/28 12:30:21;;;;;;;2.97;1.55;;;28.00;52.70;;;;;;5002792;28;20030;-82
2021/07/28 12:32:49;;;;;;;2.03;1.83;;;28.00;52.60;;;;;;5002137;28;20021;-83
2021/07/28 12:35:14;;;;;;;2.45;1.88;;;28.10;52.20;;;;;;5002833;28;20400;-83
2021/07/28 12:37:41;;;;;;;2.63;1.80;;;28.10;52.70;;;;;;5001558;28;20023;-80
2021/07/28 12:40:07;;;;;;;3.13;1.42;;;28.30;52.70;;;;;;5001567;28;20038;-79
2021/07/28 12:42:33;;;;;;;7.82;2.80;;;28.30;52.20;;;;;;5003040;28;20404;-80
2021/07/28 12:44:59;;;;;;;7.75;2.55;;;28.30;52.10;;;;;;5000454;28;20030;-79
2021/07/28 12:47:25;;;;;;;3.75;1.88;;;28.20;52.40;;;;;;5018584;28;20037;-76
2021/07/28 12:49:51;;;;;;;3.05;2.22;;;28.00;51.90;;;;;;5001709;28;20486;-77
2021/07/28 12:52:17;;;;;;;2.50;2.20;;;27.90;52.30;;;;;;5002350;28;20022;-82
2021/07/28 12:54:42;;;;;;;2.78;1.92;;;28.00;52.70;;;;;;5002817;28;20396;-79